createdAt,value
2019-01-13T00:01:01.066Z,100.00
2019-01-13T00:03:36.590Z,100.00
2019-01-13T00:06:12.635Z,100.00
2019-01-13T00:08:48.937Z,100.00
2019-01-13T00:11:23.179Z,100.00
2019-01-13T00:14:00.919Z,100.00
2019-01-13T00:16:37.222Z,100.00
2019-01-13T00:19:11.568Z,100.00
2019-01-13T00:21:47.595Z,100.00
2019-01-13T00:24:25.371Z,100.00
2019-01-13T00:27:02.012Z,99.69
2019-01-13T00:29:41.767Z,98.36
2019-01-13T00:32:16.391Z,98.32
2019-01-13T00:34:52.669Z,98.56
2019-01-13T00:37:27.233Z,96.15
2019-01-13T00:40:05.018Z,93.29
2019-01-13T00:42:41.269Z,92.96
2019-01-13T00:45:17.040Z,92.79
2019-01-13T00:47:54.371Z,92.25
2019-01-13T00:50:29.695Z,91.94
2019-01-13T00:53:02.622Z,92.37
2019-01-13T00:55:38.182Z,92.39
2019-01-13T00:58:13.552Z,92.48
2019-01-13T01:00:49.053Z,91.91
2019-01-13T01:03:29.709Z,91.62
2019-01-13T01:06:06.174Z,91.64
2019-01-13T01:08:56.853Z,91.18
2019-01-13T01:11:28.622Z,92.53
2019-01-13T01:14:01.080Z,93.51
2019-01-13T01:16:32.819Z,94.04
2019-01-13T01:19:04.621Z,94.63
2019-01-13T01:21:36.440Z,95.16
2019-01-13T01:24:08.119Z,95.59
2019-01-13T01:26:39.946Z,96.49
2019-01-13T01:29:11.815Z,97.23
2019-01-13T01:31:43.630Z,97.94
2019-01-13T01:34:15.420Z,98.46
2019-01-13T01:36:47.091Z,97.89
2019-01-13T01:39:18.717Z,97.29
2019-01-13T01:41:51.059Z,96.54
2019-01-13T01:44:22.835Z,96.19
2019-01-13T01:46:54.617Z,96.48
2019-01-13T01:49:26.469Z,97.83
2019-01-13T01:52:00.704Z,97.95
2019-01-13T01:54:32.372Z,98.18
2019-01-13T01:57:04.174Z,98.26
2019-01-13T01:59:36.589Z,98.10
2019-01-13T02:02:09.616Z,98.00
2019-01-13T02:04:41.375Z,98.51
2019-01-13T02:07:13.098Z,98.36
2019-01-13T02:09:44.730Z,98.31
2019-01-13T02:12:16.387Z,97.03
2019-01-13T02:14:47.919Z,94.63
2019-01-13T02:17:19.609Z,94.22
2019-01-13T02:19:51.952Z,95.18
2019-01-13T02:22:23.597Z,96.25
2019-01-13T02:24:55.564Z,97.28
2019-01-13T02:27:27.120Z,97.79
2019-01-13T02:29:58.921Z,96.40
2019-01-13T02:32:30.784Z,95.39
2019-01-13T02:35:02.901Z,94.50
2019-01-13T02:37:34.604Z,94.49
2019-01-13T02:40:07.720Z,94.26
2019-01-13T02:42:39.547Z,94.31
2019-01-13T02:45:15.850Z,93.67
2019-01-13T02:47:47.372Z,93.10
2019-01-13T02:50:19.494Z,92.76
2019-01-13T02:52:51.373Z,92.53
2019-01-13T02:55:22.896Z,91.56
2019-01-13T02:57:54.432Z,91.83
2019-01-13T03:00:27.704Z,91.83
2019-01-13T03:03:00.663Z,91.29
2019-01-13T03:05:34.001Z,90.87
2019-01-13T03:08:05.764Z,89.92
2019-01-13T03:10:37.292Z,88.56
2019-01-13T03:13:12.185Z,88.35
2019-01-13T03:15:44.019Z,89.03
2019-01-13T03:18:15.700Z,89.03
2019-01-13T03:20:47.423Z,89.02
2019-01-13T03:23:19.024Z,89.01
2019-01-13T03:25:50.754Z,88.48
2019-01-13T03:28:22.529Z,88.27
2019-01-13T03:30:54.163Z,88.51
2019-01-13T03:33:25.717Z,88.59
2019-01-13T03:35:57.458Z,88.72
2019-01-13T03:38:29.001Z,88.89
2019-01-13T03:41:00.538Z,88.94
2019-01-13T03:43:32.334Z,88.77
2019-01-13T03:46:04.427Z,88.87
2019-01-13T03:48:36.078Z,89.21
2019-01-13T03:51:08.146Z,89.68
2019-01-13T03:53:39.852Z,90.26
2019-01-13T03:56:12.125Z,90.30
2019-01-13T03:58:44.042Z,90.60
2019-01-13T04:01:18.681Z,90.25
2019-01-13T04:03:50.507Z,89.63
2019-01-13T04:06:22.551Z,88.77
2019-01-13T04:08:54.077Z,89.01
2019-01-13T04:11:25.604Z,89.08
2019-01-13T04:13:57.361Z,88.80
2019-01-13T04:16:29.822Z,89.25
2019-01-13T04:19:01.571Z,88.78
2019-01-13T04:21:33.089Z,88.82
2019-01-13T04:24:04.831Z,88.71
2019-01-13T04:26:36.454Z,88.06
2019-01-13T04:29:08.209Z,87.70
2019-01-13T04:31:39.914Z,87.46
2019-01-13T04:34:11.589Z,87.17
2019-01-13T04:36:43.442Z,86.85
2019-01-13T04:39:15.319Z,86.24
2019-01-13T04:41:46.937Z,85.80
2019-01-13T04:44:18.418Z,85.23
2019-01-13T04:46:50.337Z,85.44
2019-01-13T04:49:25.051Z,85.69
2019-01-13T04:51:57.135Z,85.46
2019-01-13T04:54:28.907Z,85.38
2019-01-13T04:57:00.547Z,85.93
2019-01-13T04:59:32.272Z,86.39
2019-01-13T05:02:03.958Z,86.32
2019-01-13T05:04:35.441Z,86.12
2019-01-13T05:07:06.977Z,85.97
2019-01-13T05:09:38.637Z,85.77
2019-01-13T05:12:10.286Z,85.35
2019-01-13T05:14:42.103Z,85.31
2019-01-13T05:17:13.800Z,84.51
2019-01-13T05:19:45.257Z,84.08
2019-01-13T05:22:16.927Z,84.18
2019-01-13T05:24:48.560Z,84.25
2019-01-13T05:27:19.985Z,84.34
2019-01-13T05:29:51.619Z,83.74
2019-01-13T05:32:23.286Z,84.00
2019-01-13T05:34:54.985Z,83.35
2019-01-13T05:37:26.616Z,82.56
2019-01-13T05:39:58.327Z,82.72
2019-01-13T05:42:29.870Z,82.75
2019-01-13T05:45:01.455Z,82.57
2019-01-13T05:47:33.279Z,82.84
2019-01-13T05:50:05.227Z,85.04
2019-01-13T05:52:38.005Z,86.22
2019-01-13T05:55:09.687Z,87.72
2019-01-13T05:57:41.508Z,89.06
2019-01-13T06:00:17.950Z,90.26
2019-01-13T06:02:49.645Z,91.03
2019-01-13T06:05:21.162Z,90.87
2019-01-13T06:07:52.769Z,90.81
2019-01-13T06:10:24.642Z,91.14
2019-01-13T06:12:56.390Z,91.64
2019-01-13T06:15:28.620Z,92.08
2019-01-13T06:18:00.175Z,92.71
2019-01-13T06:20:31.799Z,93.18
2019-01-13T06:23:03.782Z,94.41
2019-01-13T06:25:35.552Z,94.09
2019-01-13T06:28:07.339Z,93.83
2019-01-13T06:30:39.160Z,92.53
2019-01-13T06:33:10.760Z,91.98
2019-01-13T06:35:42.372Z,91.59
2019-01-13T06:38:14.073Z,89.33
2019-01-13T06:40:45.626Z,88.08
2019-01-13T06:43:17.808Z,87.47
2019-01-13T06:45:49.633Z,87.43
2019-01-13T06:48:22.501Z,87.96
2019-01-13T06:50:54.268Z,88.09
2019-01-13T06:53:27.067Z,87.86
2019-01-13T06:55:58.752Z,88.01
2019-01-13T06:58:31.163Z,88.50
2019-01-13T07:01:02.979Z,88.64
2019-01-13T07:03:34.797Z,88.25
2019-01-13T07:06:06.313Z,88.27
2019-01-13T07:08:37.860Z,87.86
2019-01-13T07:11:09.507Z,87.67
2019-01-13T07:13:41.468Z,87.51
2019-01-13T07:16:13.191Z,87.87
2019-01-13T07:18:44.912Z,89.05
2019-01-13T07:21:16.745Z,88.34
2019-01-13T07:23:48.372Z,87.62
2019-01-13T07:26:20.366Z,87.33
2019-01-13T07:28:52.896Z,87.31
2019-01-13T07:31:25.144Z,87.10
2019-01-13T07:33:58.166Z,86.72
2019-01-13T07:36:30.052Z,86.76
2019-01-13T07:39:01.766Z,85.85
2019-01-13T07:41:33.878Z,85.76
2019-01-13T07:44:06.338Z,84.86
2019-01-13T07:46:38.083Z,84.68
2019-01-13T07:49:10.108Z,85.09
2019-01-13T07:51:41.795Z,85.37
2019-01-13T07:54:14.282Z,84.68
2019-01-13T07:56:47.478Z,85.34
2019-01-13T07:59:19.540Z,85.42
2019-01-13T08:01:51.647Z,84.98
2019-01-13T08:04:24.237Z,84.91
2019-01-13T08:06:56.484Z,84.14
2019-01-13T08:09:28.487Z,84.41
2019-01-13T08:12:01.235Z,84.14
2019-01-13T08:14:33.357Z,83.05
2019-01-13T08:17:05.108Z,82.81
2019-01-13T08:19:37.058Z,82.08
2019-01-13T08:22:08.847Z,81.23
2019-01-13T08:24:40.818Z,80.95
2019-01-13T08:27:13.168Z,79.76
2019-01-13T08:29:44.721Z,79.79
2019-01-13T08:32:16.437Z,79.39
2019-01-13T08:34:48.510Z,78.23
2019-01-13T08:37:20.904Z,78.05
2019-01-13T08:39:52.577Z,76.88
2019-01-13T08:42:24.555Z,74.79
2019-01-13T08:44:56.311Z,73.78
2019-01-13T08:47:29.321Z,72.01
2019-01-13T08:50:03.252Z,70.64
2019-01-13T08:52:35.579Z,70.60
2019-01-13T08:55:09.134Z,69.16
2019-01-13T08:57:41.279Z,68.84
2019-01-13T09:00:26.327Z,68.02
2019-01-13T09:03:00.129Z,67.72
2019-01-13T09:05:32.036Z,66.79
2019-01-13T09:08:04.629Z,65.81
2019-01-13T09:10:37.604Z,64.55
2019-01-13T09:13:09.700Z,64.00
2019-01-13T09:15:41.624Z,63.66
2019-01-13T09:18:13.798Z,64.00
2019-01-13T09:20:46.332Z,64.07
2019-01-13T09:23:21.699Z,64.87
2019-01-13T09:25:58.486Z,66.00
2019-01-13T09:28:31.394Z,68.73
2019-01-13T09:31:03.412Z,67.78
2019-01-13T09:33:36.302Z,65.10
2019-01-13T09:36:08.709Z,63.63
2019-01-13T09:38:41.508Z,62.28
2019-01-13T09:41:16.102Z,61.56
2019-01-13T09:43:48.724Z,60.87
2019-01-13T09:46:22.334Z,60.49
2019-01-13T09:48:56.437Z,59.70
2019-01-13T09:51:32.835Z,59.23
2019-01-13T09:54:08.104Z,58.51
2019-01-13T09:56:45.684Z,56.06
2019-01-13T09:59:23.020Z,54.25
2019-01-13T10:02:05.432Z,48.84
2019-01-13T10:04:41.264Z,42.35
2019-01-13T10:07:17.685Z,36.84
2019-01-13T10:09:51.929Z,32.70
2019-01-13T10:12:29.282Z,31.02
2019-01-13T10:15:06.870Z,29.09
2019-01-13T10:17:41.662Z,25.78
2019-01-13T10:20:21.823Z,24.27
2019-01-13T10:22:57.194Z,22.31
2019-01-13T10:25:38.330Z,22.59
2019-01-13T10:28:18.669Z,22.25
2019-01-13T10:31:03.103Z,21.42
2019-01-13T10:33:34.531Z,21.26
2019-01-13T10:36:13.388Z,21.05
2019-01-13T10:38:49.510Z,20.75
2019-01-13T10:41:27.553Z,20.96
2019-01-13T10:44:08.729Z,21.97
2019-01-13T10:46:45.221Z,22.38
2019-01-13T10:49:22.769Z,20.91
2019-01-13T10:51:56.196Z,21.29
2019-01-13T10:54:35.027Z,21.32
2019-01-13T10:57:11.076Z,20.50
2019-01-13T10:59:47.895Z,20.58
2019-01-13T11:02:21.104Z,24.52
2019-01-13T11:04:56.849Z,24.30
2019-01-13T11:07:33.806Z,23.61
2019-01-13T11:10:14.302Z,24.22
2019-01-13T11:12:51.185Z,27.76
2019-01-13T11:15:25.994Z,25.67
2019-01-13T11:18:03.080Z,28.34
2019-01-13T11:20:45.591Z,26.53
2019-01-13T11:23:21.673Z,26.46
2019-01-13T11:25:59.525Z,26.23
2019-01-13T11:28:34.998Z,24.80
2019-01-13T11:31:09.454Z,24.45
2019-01-13T11:33:41.970Z,23.16
2019-01-13T11:36:14.185Z,22.84
2019-01-13T11:38:46.372Z,23.42
2019-01-13T11:41:18.599Z,24.36
2019-01-13T11:43:50.763Z,29.06
2019-01-13T11:46:23.664Z,32.24
2019-01-13T11:48:55.525Z,33.73
2019-01-13T11:51:28.386Z,37.39
2019-01-13T11:54:01.319Z,33.04
2019-01-13T11:56:33.993Z,39.43
2019-01-13T11:59:06.023Z,35.39
2019-01-13T12:01:37.697Z,35.33
2019-01-13T12:04:11.401Z,35.21
2019-01-13T12:06:43.775Z,40.97
2019-01-13T12:09:15.793Z,38.22
2019-01-13T12:11:47.520Z,38.17
2019-01-13T12:14:20.915Z,33.80
2019-01-13T12:16:52.771Z,38.15
2019-01-13T12:19:25.721Z,35.14
2019-01-13T12:21:57.970Z,39.69
2019-01-13T12:24:29.602Z,42.14
2019-01-13T12:27:03.986Z,37.64
2019-01-13T12:29:35.928Z,35.29
2019-01-13T12:32:08.273Z,33.18
2019-01-13T12:34:40.982Z,31.30
2019-01-13T12:37:14.763Z,34.41
2019-01-13T12:39:46.453Z,34.44
2019-01-13T12:42:19.094Z,34.69
2019-01-13T12:44:53.267Z,34.74
2019-01-13T12:47:25.253Z,36.36
2019-01-13T12:49:57.851Z,36.99
2019-01-13T12:52:30.165Z,35.36
2019-01-13T12:55:03.182Z,41.57
2019-01-13T12:57:35.309Z,39.19
2019-01-13T13:00:09.969Z,38.70
2019-01-13T13:02:41.818Z,35.00
2019-01-13T13:05:15.625Z,34.16
2019-01-13T13:07:48.184Z,35.09
2019-01-13T13:10:40.183Z,33.07
2019-01-13T13:13:11.736Z,34.74
2019-01-13T13:15:43.956Z,34.90
2019-01-13T13:18:15.789Z,40.78
2019-01-13T13:20:49.092Z,38.41
2019-01-13T13:23:21.105Z,37.62
2019-01-13T13:25:53.121Z,34.34
2019-01-13T13:28:25.729Z,32.90
2019-01-13T13:30:57.664Z,33.71
2019-01-13T13:33:29.765Z,31.87
2019-01-13T13:36:03.781Z,29.97
2019-01-13T13:38:36.292Z,30.41
2019-01-13T13:41:08.068Z,30.93
2019-01-13T13:43:37.368Z,31.77
2019-01-13T13:46:09.629Z,33.36
2019-01-13T13:48:42.175Z,31.69
2019-01-13T13:51:14.302Z,30.18
2019-01-13T13:53:46.642Z,31.03
2019-01-13T13:56:18.684Z,30.20
2019-01-13T13:58:50.805Z,30.52
2019-01-13T14:01:22.985Z,29.75
2019-01-13T14:03:57.390Z,29.12
2019-01-13T14:06:29.369Z,30.62
2019-01-13T14:09:01.446Z,30.25
2019-01-13T14:11:33.338Z,30.72
2019-01-13T14:14:05.842Z,33.65
2019-01-13T14:16:38.341Z,31.95
2019-01-13T14:19:10.356Z,31.36
2019-01-13T14:21:42.752Z,30.63
2019-01-13T14:24:14.771Z,33.72
2019-01-13T14:26:46.666Z,32.42
2019-01-13T14:29:19.113Z,32.28
2019-01-13T14:31:51.156Z,33.82
2019-01-13T14:34:23.154Z,38.46
2019-01-13T14:36:55.292Z,38.88
2019-01-13T14:39:27.492Z,40.91
2019-01-13T14:41:59.550Z,42.70
2019-01-13T14:44:31.295Z,42.39
2019-01-13T14:47:03.289Z,45.85
2019-01-13T14:49:35.102Z,48.37
2019-01-13T14:52:06.725Z,48.20
2019-01-13T14:54:38.764Z,49.46
2019-01-13T14:57:10.797Z,49.82
2019-01-13T14:59:43.316Z,49.36
2019-01-13T15:02:15.626Z,47.45
2019-01-13T15:04:47.766Z,45.46
2019-01-13T15:07:19.499Z,44.67
2019-01-13T15:09:52.797Z,43.73
2019-01-13T15:12:24.685Z,43.55
2019-01-13T15:14:57.892Z,45.70
2019-01-13T15:17:29.738Z,46.22
2019-01-13T15:20:01.674Z,45.97
2019-01-13T15:22:33.608Z,45.49
2019-01-13T15:25:06.771Z,45.83
2019-01-13T15:27:38.773Z,45.13
2019-01-13T15:30:23.012Z,45.27
2019-01-13T15:32:55.104Z,45.63
2019-01-13T15:35:26.996Z,46.44
2019-01-13T15:37:59.925Z,48.16
2019-01-13T15:40:31.741Z,49.49
2019-01-13T15:43:04.397Z,51.04
2019-01-13T15:45:38.354Z,52.48
2019-01-13T15:48:10.855Z,53.76
2019-01-13T15:50:42.910Z,54.67
2019-01-13T15:53:14.795Z,55.12
2019-01-13T15:55:48.029Z,55.86
2019-01-13T15:58:20.358Z,57.08
2019-01-13T16:00:53.418Z,57.85
2019-01-13T16:03:25.762Z,59.18
2019-01-13T16:05:58.494Z,59.35
2019-01-13T16:08:30.634Z,60.45
2019-01-13T16:11:03.404Z,61.83
2019-01-13T16:13:35.412Z,62.80
2019-01-13T16:16:07.374Z,64.22
2019-01-13T16:18:39.933Z,65.64
2019-01-13T16:21:13.640Z,67.10
2019-01-13T16:23:45.684Z,67.21
2019-01-13T16:26:19.081Z,67.82
2019-01-13T16:28:51.145Z,68.85
2019-01-13T16:31:24.494Z,68.92
2019-01-13T16:33:57.582Z,69.79
2019-01-13T16:36:30.500Z,71.16
2019-01-13T16:39:02.259Z,71.41
2019-01-13T16:41:35.314Z,72.07
2019-01-13T16:44:07.505Z,72.72
2019-01-13T16:46:43.615Z,73.04
2019-01-13T16:49:14.398Z,73.51
2019-01-13T16:51:47.083Z,73.65
2019-01-13T16:54:19.437Z,73.49
2019-01-13T16:56:51.270Z,74.10
2019-01-13T16:59:22.960Z,74.38
2019-01-13T17:01:55.139Z,75.03
2019-01-13T17:04:28.979Z,76.33
2019-01-13T17:07:00.421Z,76.53
2019-01-13T17:09:32.168Z,76.93
2019-01-13T17:12:03.853Z,77.14
2019-01-13T17:14:35.641Z,77.52
2019-01-13T17:17:07.411Z,77.65
2019-01-13T17:19:39.308Z,78.99
2019-01-13T17:22:11.403Z,79.43
2019-01-13T17:24:43.527Z,79.61
2019-01-13T17:27:15.697Z,80.16
2019-01-13T17:29:47.918Z,81.53
2019-01-13T17:32:20.109Z,81.99
2019-01-13T17:34:52.531Z,81.98
2019-01-13T17:37:25.078Z,81.83
2019-01-13T17:39:57.585Z,80.63
2019-01-13T17:42:29.513Z,80.66
2019-01-13T17:45:01.717Z,80.08
2019-01-13T17:47:33.865Z,80.03
2019-01-13T17:50:06.771Z,79.72
2019-01-13T17:52:39.678Z,80.28
2019-01-13T17:55:15.539Z,80.37
2019-01-13T17:57:47.729Z,80.60
2019-01-13T18:00:39.888Z,80.93
2019-01-13T18:03:17.559Z,81.11
2019-01-13T18:05:49.536Z,81.86
2019-01-13T18:08:21.907Z,82.05
2019-01-13T18:10:54.205Z,81.50
2019-01-13T18:13:35.978Z,82.25
2019-01-13T18:16:08.259Z,82.75
2019-01-13T18:18:39.901Z,83.18
2019-01-13T18:21:13.307Z,83.19
2019-01-13T18:23:45.959Z,84.06
2019-01-13T18:26:18.017Z,84.90
2019-01-13T18:28:49.881Z,85.23
2019-01-13T18:31:21.679Z,85.03
2019-01-13T18:33:54.711Z,85.19
2019-01-13T18:36:26.625Z,85.72
2019-01-13T18:38:58.533Z,87.51
2019-01-13T18:41:30.362Z,88.69
2019-01-13T18:44:02.601Z,88.59
2019-01-13T18:47:07.321Z,87.75
2019-01-13T18:49:39.256Z,87.46
2019-01-13T18:52:11.056Z,87.67
2019-01-13T18:54:42.679Z,87.87
2019-01-13T18:57:14.782Z,88.04
2019-01-13T18:59:46.823Z,87.97
2019-01-13T19:02:18.837Z,87.82
2019-01-13T19:04:57.239Z,87.90
2019-01-13T19:07:24.766Z,88.42
2019-01-13T19:09:56.622Z,88.65
2019-01-13T19:12:28.751Z,89.54
2019-01-13T19:15:03.560Z,90.12
2019-01-13T19:17:35.620Z,90.66
2019-01-13T19:20:30.976Z,91.00
2019-01-13T19:23:19.354Z,90.36
2019-01-13T19:25:51.231Z,90.57
2019-01-13T19:28:23.263Z,90.85
2019-01-13T19:30:55.523Z,90.86
2019-01-13T19:33:27.477Z,90.93
2019-01-13T19:35:59.586Z,90.97
2019-01-13T19:38:32.297Z,90.64
2019-01-13T19:41:04.328Z,90.87
2019-01-13T19:43:36.629Z,91.20
2019-01-13T19:46:09.574Z,91.45
2019-01-13T19:48:48.435Z,92.47
2019-01-13T19:51:20.353Z,93.77
2019-01-13T19:53:52.918Z,95.44
2019-01-13T19:56:24.879Z,96.29
2019-01-13T19:58:57.093Z,96.30
2019-01-13T20:01:30.819Z,96.39
2019-01-13T20:04:02.927Z,96.56
2019-01-13T20:06:34.848Z,96.40
2019-01-13T20:09:11.810Z,96.41
2019-01-13T20:11:44.104Z,96.00
2019-01-13T20:14:16.354Z,95.52
2019-01-13T20:16:49.395Z,95.70
2019-01-13T20:19:22.971Z,96.65
2019-01-13T20:21:56.991Z,97.68
2019-01-13T20:24:29.298Z,99.52
2019-01-13T20:27:01.507Z,100.00
2019-01-13T20:29:36.146Z,100.00
2019-01-13T20:32:08.381Z,100.00
2019-01-13T20:34:41.222Z,100.00
2019-01-13T20:37:13.156Z,100.00
2019-01-13T20:39:45.507Z,100.00
2019-01-13T20:42:18.419Z,100.00
2019-01-13T20:44:50.525Z,100.00
2019-01-13T20:47:22.743Z,100.00
2019-01-13T20:49:54.791Z,100.00
2019-01-13T20:52:28.033Z,100.00
2019-01-13T20:55:00.682Z,100.00
2019-01-13T20:57:33.135Z,100.00
2019-01-13T21:00:08.410Z,100.00
2019-01-13T21:02:42.884Z,100.00
2019-01-13T21:05:15.083Z,100.00
2019-01-13T21:07:47.428Z,100.00
2019-01-13T21:10:19.925Z,100.00
2019-01-13T21:12:52.386Z,100.00
2019-01-13T21:15:36.571Z,100.00
2019-01-13T21:18:08.854Z,100.00
2019-01-13T21:20:42.956Z,100.00
2019-01-13T21:23:16.238Z,100.00
2019-01-13T21:25:49.349Z,100.00
2019-01-13T21:28:22.864Z,100.00
2019-01-13T21:30:58.934Z,100.00
2019-01-13T21:33:31.471Z,100.00
2019-01-13T21:36:04.236Z,100.00
2019-01-13T21:38:36.305Z,100.00
2019-01-13T21:41:08.391Z,100.00
2019-01-13T21:43:40.754Z,100.00
2019-01-13T21:46:15.238Z,100.00
2019-01-13T21:48:47.897Z,100.00
2019-01-13T21:51:19.901Z,100.00
2019-01-13T21:53:53.986Z,100.00
2019-01-13T21:56:26.587Z,100.00
2019-01-13T21:58:58.946Z,100.00
2019-01-13T22:01:35.495Z,100.00
2019-01-13T22:04:05.756Z,100.00
2019-01-13T22:06:38.007Z,100.00
2019-01-13T22:09:14.071Z,100.00
2019-01-13T22:11:46.518Z,100.00
2019-01-13T22:14:19.275Z,100.00
2019-01-13T22:16:51.419Z,100.00
2019-01-13T22:19:26.361Z,100.00
2019-01-13T22:21:59.798Z,100.00
2019-01-13T22:24:31.800Z,100.00
2019-01-13T22:27:04.611Z,100.00
2019-01-13T22:29:36.974Z,100.00
2019-01-13T22:32:09.081Z,100.00
2019-01-13T22:34:41.179Z,100.00
2019-01-13T22:37:13.203Z,100.00
2019-01-13T22:39:44.830Z,100.00
2019-01-13T22:42:16.900Z,100.00
2019-01-13T22:44:48.835Z,100.00
2019-01-13T22:47:22.553Z,100.00
2019-01-13T22:49:54.205Z,100.00
2019-01-13T22:52:25.943Z,100.00
2019-01-13T22:54:57.907Z,100.00
2019-01-13T22:57:29.646Z,100.00
2019-01-13T23:00:01.182Z,100.00
2019-01-13T23:02:33.216Z,100.00
2019-01-13T23:05:05.471Z,100.00
2019-01-13T23:07:37.798Z,100.00
2019-01-13T23:10:10.081Z,100.00
2019-01-13T23:12:42.099Z,100.00
2019-01-13T23:15:14.288Z,100.00
2019-01-13T23:17:46.430Z,100.00
2019-01-13T23:20:18.134Z,100.00
2019-01-13T23:22:50.131Z,100.00
2019-01-13T23:25:21.948Z,100.00
2019-01-13T23:27:54.949Z,100.00
2019-01-13T23:30:26.717Z,100.00
2019-01-13T23:32:59.744Z,100.00
2019-01-13T23:35:31.661Z,100.00
2019-01-13T23:38:04.314Z,100.00
2019-01-13T23:40:36.290Z,100.00
2019-01-13T23:43:08.324Z,100.00
2019-01-13T23:45:40.235Z,100.00
2019-01-13T23:48:11.990Z,100.00
2019-01-13T23:50:43.787Z,100.00
2019-01-13T23:53:15.467Z,100.00
2019-01-13T23:55:47.138Z,100.00
2019-01-13T23:58:18.958Z,100.00
